Meteo Giornale » Osservazioni meteo Stati Uniti (USA) » Lincoln Lincoln
ore: 04:54 - Osservazioni Meteo Lincoln Lincoln
Lat. 40° 49' N Lon. 96° 45' W Alt. 370 metri s.l.m.
23 °C
Nuvoloso
Temp. 24 Ore
23 °C
33 °C
Nord
0 Km/h
Dew point 21 °C
Umidità 88 %
Visibilità 10 Km
Il sole sorge alle ore 06:54
Il sole tramonta alle ore 19:59
| Data e Ora | Cielo e Fenomeni | T °C | DP °C | Um. % | Pres. hPa | Vis. km | Vento km/h | |
|---|---|---|---|---|---|---|---|---|
| Oggi h: 04:54 | Nuvoloso | 23 | 21 | 88 | 1014 | 10 | N 0 | |
| Oggi h: 03:54 | Coperto | 23 | 22 | 94 | 1014 | 10 | N 7.4 | |
| Oggi h: 02:54 | Sereno | 23 | 21 | 88 | 1013 | 10 | N 7.4 | |
| Oggi h: 01:54 | Sereno | 24 | 22 | 88 | 1014 | 10 | N 0 | |
| Oggi h: 00:54 | Sereno | 24 | 22 | 88 | 1014 | 10 | N 0 | |
| Ieri h: 23:54 | Sereno | 27 | 23 | 78 | 1014 | 10 | N 0 | |
| Ieri h: 22:54 | Sereno | 26 | 22 | 78 | 1014 | 10 | N 0 | |
| Ieri h: 21:54 | Sereno | 26 | 22 | 78 | 1014 | 10 | N 7.4 | |
| Ieri h: 20:54 | Sereno | 28 | 22 | 69 | 1013 | 10 | E/NE 9.3 | |
| Ieri h: 19:54 | Sereno | 31 | 21 | 55 | 1013 | 10 | N 5.5 | |
| Ieri h: 18:54 | Sereno | 33 | 21 | 49 | 1013 | 10 | N 0 | |
| Ieri h: 17:54 | Sereno | 33 | 21 | 49 | 1013 | 10 | S/SO 9.3 | |
| Ieri h: 16:54 | Sereno | 33 | 19 | 43 | 1013 | 10 | N 0 | |
| Ieri h: 15:54 | Sereno | 33 | 21 | 49 | 1014 | 10 | O/SO 9.3 | |
| Ieri h: 14:54 | Sereno | 33 | 19 | 43 | 1014 | 10 | O/SO 9.3 | |
| Ieri h: 13:54 | Sereno | 33 | 21 | 49 | 1014 | 10 | N 11.1 | |
| Ieri h: 12:54 | Sereno | 31 | 20 | 52 | 1014 | 10 | N 0 | |
| Ieri h: 11:54 | Sereno | 29 | 21 | 62 | 1014 | 10 | N/NE 7.4 | |
| Ieri h: 10:54 | Sereno | 27 | 20 | 65 | 1014 | 10 | N/NO 9.3 | |
| Ieri h: 09:54 | Sereno | 25 | 19 | 69 | 1013 | 10 | NO 13 | |
| Ieri h: 08:54 | Foschia | 24 | 20 | 78 | 1013 | 6 | N 0 | |
| Ieri h: 07:54 | Poco Nuvoloso | 24 | 19 | 73 | 1012 | 10 | NO 24 | |
| Ieri h: 07:30 | Poco Nuvoloso | 25 | 20 | 73 | 1013 | 10 | O/NO 37 | |
| Ieri h: 06:54 | Sereno | 23 | 21 | 88 | 1012 | 10 | S/SE 9.3 | |
| Ieri h: 05:54 | Sereno | 24 | 21 | 83 | 1011 | 10 | N 5.5 | |



